Time;durP1;ratioP1;P1;durP2;ratioP2;P2;SDS_P1;SDS_P2;PMS_P1;PMS_P2;Temp;Humidity;BMP_temperature;BMP_pressure;BME280_temperature;BME280_humidity;BME280_pressure;Samples;Min_cycle;Max_cycle;Signal;HPM_P1;HPM_P2
2023/01/04 00:02:08;;;;;;;9.82;2.10;;;8.30;99.90;;;;;;5024846;28;20088;-85
2023/01/04 00:04:33;;;;;;;11.35;2.40;;;8.30;99.90;;;;;;5034625;28;20116;-85
2023/01/04 00:06:59;;;;;;;10.82;2.53;;;8.30;99.90;;;;;;5031033;28;20052;-84
2023/01/04 00:09:25;;;;;;;9.18;2.75;;;8.30;99.90;;;;;;5019484;28;20057;-85
2023/01/04 00:11:50;;;;;;;10.63;2.15;;;8.30;99.90;;;;;;5034500;28;20555;-85
2023/01/04 00:14:17;;;;;;;10.10;2.40;;;8.30;99.90;;;;;;5020257;28;20037;-85
2023/01/04 00:16:43;;;;;;;8.45;2.25;;;8.30;99.90;;;;;;5023502;28;20077;-85
2023/01/04 00:19:11;;;;;;;14.38;2.38;;;8.40;99.90;;;;;;5034026;28;20069;-85
2023/01/04 00:21:36;;;;;;;11.63;2.58;;;8.40;99.90;;;;;;5029391;28;20037;-85
2023/01/04 00:24:02;;;;;;;14.07;2.30;;;8.40;99.90;;;;;;5028941;28;20094;-85
2023/01/04 00:26:30;;;;;;;11.05;2.40;;;8.40;99.90;;;;;;5028796;28;20033;-84
2023/01/04 00:29:01;;;;;;;11.70;2.58;;;8.40;99.90;;;;;;5033299;28;20064;-84
2023/01/04 00:31:27;;;;;;;7.82;2.40;;;8.40;99.90;;;;;;5026701;28;20057;-85
2023/01/04 00:33:58;;;;;;;11.93;2.70;;;8.40;99.90;;;;;;5033314;28;20644;-84
2023/01/04 00:36:25;;;;;;;10.40;2.67;;;8.40;99.90;;;;;;5032528;28;20409;-85
2023/01/04 00:39:05;;;;;;;11.13;2.95;;;8.40;99.90;;;;;;5027438;28;20042;-85
2023/01/04 00:41:33;;;;;;;10.82;2.70;;;8.40;99.90;;;;;;5022570;28;20037;-85
2023/01/04 00:44:02;;;;;;;9.05;2.58;;;8.40;99.90;;;;;;5034364;28;20037;-84
2023/01/04 00:46:28;;;;;;;9.27;2.50;;;8.40;99.90;;;;;;5018489;28;20041;-85
2023/01/04 00:48:54;;;;;;;7.10;2.90;;;8.40;99.90;;;;;;5032548;28;20092;-84
2023/01/04 00:51:19;;;;;;;7.97;2.45;;;8.40;99.90;;;;;;5027123;28;20041;-85
2023/01/04 00:53:45;;;;;;;8.63;2.50;;;8.30;99.90;;;;;;5021264;28;20049;-85
2023/01/04 00:56:10;;;;;;;10.02;2.90;;;8.30;99.90;;;;;;5032581;28;20034;-85
2023/01/04 00:58:36;;;;;;;10.82;2.65;;;8.40;99.90;;;;;;5018109;28;20043;-84
2023/01/04 01:01:06;;;;;;;11.15;3.10;;;8.30;99.90;;;;;;5034087;28;20042;-84
2023/01/04 01:03:31;;;;;;;9.55;2.92;;;8.30;99.90;;;;;;5015963;28;20041;-84
2023/01/04 01:06:05;;;;;;;9.45;2.50;;;8.30;99.90;;;;;;5033252;28;20045;-85
2023/01/04 01:08:32;;;;;;;11.02;2.85;;;8.30;99.90;;;;;;5024573;28;20485;-85
2023/01/04 01:11:03;;;;;;;11.63;2.90;;;8.30;99.90;;;;;;5023865;28;20045;-85
2023/01/04 01:13:28;;;;;;;9.63;2.50;;;8.30;99.90;;;;;;5032784;28;20045;-84
2023/01/04 01:15:54;;;;;;;9.65;2.60;;;8.30;99.90;;;;;;5015314;28;20037;-85
2023/01/04 01:18:19;;;;;;;11.23;2.75;;;8.30;99.90;;;;;;5028662;28;20046;-85
2023/01/04 01:20:45;;;;;;;9.60;3.00;;;8.30;99.90;;;;;;5032848;28;20048;-85
2023/01/04 01:23:13;;;;;;;9.98;2.80;;;8.30;99.90;;;;;;5032771;28;20401;-85
2023/01/04 01:25:40;;;;;;;10.63;2.60;;;8.30;99.90;;;;;;5033059;28;20056;-84
2023/01/04 01:28:06;;;;;;;10.48;2.72;;;8.30;99.90;;;;;;5032873;28;20064;-85
2023/01/04 01:30:31;;;;;;;9.02;2.40;;;8.30;99.90;;;;;;5031587;28;20041;-84
2023/01/04 01:32:57;;;;;;;9.90;2.35;;;8.30;99.90;;;;;;5048923;28;20119;-85
2023/01/04 01:35:23;;;;;;;6.55;2.30;;;8.30;99.90;;;;;;5020247;28;20099;-85
2023/01/04 01:37:48;;;;;;;10.98;2.42;;;8.30;99.90;;;;;;5015398;28;20065;-85
2023/01/04 01:40:14;;;;;;;10.23;2.90;;;8.30;99.90;;;;;;5045850;28;20040;-85
2023/01/04 01:42:39;;;;;;;9.10;2.28;;;8.30;99.90;;;;;;5029522;28;20143;-85
2023/01/04 01:45:21;;;;;;;8.68;2.40;;;8.30;99.90;;;;;;5037510;28;20067;-85
2023/01/04 01:47:49;;;;;;;7.50;2.50;;;8.30;99.90;;;;;;5026286;28;20037;-84
2023/01/04 01:50:26;;;;;;;10.70;2.47;;;8.30;99.90;;;;;;5040392;28;20044;-85
2023/01/04 01:52:54;;;;;;;8.98;2.60;;;8.30;99.90;;;;;;5027276;28;20045;-85
2023/01/04 01:55:20;;;;;;;6.80;2.20;;;8.30;99.90;;;;;;5028577;28;20076;-85
2023/01/04 01:57:48;;;;;;;8.27;2.20;;;8.30;99.90;;;;;;5011334;28;20088;-85
2023/01/04 02:00:15;;;;;;;8.40;2.30;;;8.30;99.90;;;;;;5028534;28;20559;-84
2023/01/04 02:02:51;;;;;;;6.25;2.10;;;8.30;99.90;;;;;;5049742;28;20072;-85
2023/01/04 02:05:19;;;;;;;8.77;2.10;;;8.30;99.90;;;;;;5032563;28;20033;-85
2023/01/04 02:07:45;;;;;;;6.70;2.30;;;8.30;99.90;;;;;;5055517;28;20046;-84
2023/01/04 02:10:14;;;;;;;8.57;2.20;;;8.40;99.90;;;;;;5012711;28;20048;-84
2023/01/04 02:12:40;;;;;;;7.03;2.00;;;8.40;99.90;;;;;;5012545;28;20401;-84
2023/01/04 02:15:06;;;;;;;8.50;2.15;;;8.30;99.90;;;;;;5030765;28;20045;-83
2023/01/04 02:17:47;;;;;;;6.78;1.95;;;8.40;99.90;;;;;;5051408;28;20069;-83
2023/01/04 02:20:31;;;;;;;7.15;1.98;;;8.40;99.90;;;;;;5052938;28;20079;-83
2023/01/04 02:23:15;;;;;;;7.35;1.50;;;8.40;99.90;;;;;;5047891;28;20187;-84
2023/01/04 02:26:23;;;;;;;5.53;1.70;;;8.40;99.90;;;;;;5016671;28;20460;-84
2023/01/04 02:29:03;;;;;;;8.52;2.20;;;8.40;99.90;;;;;;5031990;28;20056;-83
2023/01/04 02:31:43;;;;;;;4.95;1.70;;;8.40;99.90;;;;;;5053088;28;20485;-84
2023/01/04 02:34:35;;;;;;;5.50;1.70;;;8.40;99.90;;;;;;5053084;28;20079;-84
2023/01/04 02:37:27;;;;;;;6.60;1.33;;;8.40;99.90;;;;;;5032611;28;20516;-84
2023/01/04 02:40:18;;;;;;;5.22;1.40;;;8.40;99.90;;;;;;5035514;28;20049;-84
2023/01/04 02:46:07;;;;;;;4.47;1.30;;;8.50;99.90;;;;;;5018704;28;20049;-84
2023/01/04 02:51:33;;;;;;;5.43;1.48;;;8.60;99.90;;;;;;5012978;28;20073;-85
2023/01/04 02:54:02;;;;;;;6.32;1.33;;;8.50;99.90;;;;;;5035957;28;20041;-84
2023/01/04 02:56:35;;;;;;;4.03;1.30;;;8.60;99.90;;;;;;5017086;28;20128;-84
2023/01/04 02:59:08;;;;;;;4.43;1.33;;;8.60;99.90;;;;;;5036192;28;20049;-84
2023/01/04 03:07:33;;;;;;;5.38;1.58;;;8.60;99.90;;;;;;5035224;28;20049;-84
2023/01/04 03:10:13;;;;;;;3.78;1.20;;;8.60;99.90;;;;;;5034041;28;20057;-84
2023/01/04 03:12:46;;;;;;;2.88;1.20;;;8.70;99.90;;;;;;5012677;28;20049;-84
2023/01/04 03:15:35;;;;;;;3.97;1.23;;;8.70;99.90;;;;;;5017642;28;20041;-84
2023/01/04 03:18:20;;;;;;;3.55;1.17;;;8.70;99.90;;;;;;5017306;28;20091;-84
2023/01/04 03:20:48;;;;;;;2.13;1.00;;;8.80;99.90;;;;;;5017526;28;20100;-83
2023/01/04 03:49:56;;;;;;;4.35;1.58;;;9.10;99.90;;;;;;5035058;28;20151;-84
2023/01/04 03:52:25;;;;;;;3.25;1.65;;;9.10;99.90;;;;;;5040139;28;20095;-83
2023/01/04 03:54:52;;;;;;;3.88;1.52;;;9.10;99.90;;;;;;5055095;28;20390;-83
2023/01/04 03:57:19;;;;;;;2.83;1.55;;;9.20;99.90;;;;;;5030211;28;20036;-84
2023/01/04 04:00:11;;;;;;;2.47;1.40;;;9.20;99.90;;;;;;5054348;28;20051;-83
2023/01/04 04:02:38;;;;;;;4.38;1.70;;;9.30;99.90;;;;;;5048733;28;20451;-83
2023/01/04 04:10:32;;;;;;;2.90;1.65;;;9.40;99.90;;;;;;5054919;28;20044;-83
2023/01/04 04:12:58;;;;;;;5.07;1.60;;;9.40;99.90;;;;;;5028686;28;20053;-83
2023/01/04 04:15:23;;;;;;;3.03;1.77;;;9.40;99.90;;;;;;5052797;28;20504;-83
2023/01/04 04:17:49;;;;;;;4.28;1.40;;;9.50;99.90;;;;;;5020567;28;20053;-83
2023/01/04 04:20:15;;;;;;;6.55;1.75;;;9.50;99.90;;;;;;5032962;28;20042;-83
2023/01/04 04:22:41;;;;;;;3.80;2.10;;;9.50;99.90;;;;;;5023681;28;20431;-83
2023/01/04 04:25:07;;;;;;;3.30;1.80;;;9.50;99.90;;;;;;5042091;28;20063;-83
2023/01/04 04:27:32;;;;;;;4.50;2.08;;;9.60;99.90;;;;;;5036296;28;20398;-82
2023/01/04 04:29:58;;;;;;;2.83;1.83;;;9.60;99.90;;;;;;5036904;28;20052;-82
2023/01/04 04:32:24;;;;;;;2.78;1.67;;;9.60;99.90;;;;;;5025244;28;20052;-82
2023/01/04 04:34:49;;;;;;;2.83;1.65;;;9.60;99.90;;;;;;5050419;28;20521;-84
2023/01/04 04:37:15;;;;;;;3.70;1.90;;;9.60;99.90;;;;;;5016216;28;20049;-83
2023/01/04 04:39:41;;;;;;;3.40;1.70;;;9.70;99.90;;;;;;5052169;28;20405;-84
2023/01/04 04:42:07;;;;;;;4.15;1.88;;;9.70;99.90;;;;;;5046266;28;20045;-83
2023/01/04 04:44:33;;;;;;;3.72;1.85;;;9.80;99.90;;;;;;5035134;28;20049;-83
2023/01/04 04:46:59;;;;;;;3.78;2.20;;;9.80;99.90;;;;;;5016039;28;20113;-83
2023/01/04 04:49:25;;;;;;;2.53;1.75;;;9.80;99.90;;;;;;5039767;28;20040;-83
2023/01/04 04:51:50;;;;;;;3.30;1.90;;;9.80;99.90;;;;;;5035428;28;20077;-83
2023/01/04 04:54:18;;;;;;;4.85;2.65;;;9.90;99.90;;;;;;5043034;28;20041;-83
2023/01/04 04:56:45;;;;;;;4.57;2.60;;;9.90;99.90;;;;;;5016307;28;20045;-83
2023/01/04 04:59:10;;;;;;;5.28;2.08;;;10.00;99.90;;;;;;5041623;28;20045;-83
2023/01/04 05:01:36;;;;;;;4.35;2.40;;;10.00;99.90;;;;;;5033685;28;20038;-83
2023/01/04 05:04:01;;;;;;;8.00;2.58;;;10.00;99.90;;;;;;5033867;28;20044;-83
2023/01/04 05:06:27;;;;;;;5.07;2.33;;;10.00;99.90;;;;;;5038070;28;20037;-83
2023/01/04 05:08:53;;;;;;;3.78;2.08;;;10.00;99.90;;;;;;5029245;28;20161;-83
2023/01/04 05:12:58;;;;;;;4.95;2.55;;;10.10;99.90;;;;;;5036969;28;20116;-83
2023/01/04 05:14:04;;;;;;;4.22;2.10;;;10.10;99.90;;;;;;5024702;28;20087;-84
2023/01/04 05:16:30;;;;;;;6.35;2.67;;;10.20;99.90;;;;;;5040290;28;20081;-84
2023/01/04 05:18:55;;;;;;;6.15;2.10;;;10.20;99.90;;;;;;5015928;28;20486;-84
2023/01/04 05:21:21;;;;;;;3.67;2.10;;;10.20;99.90;;;;;;5025161;28;20037;-83
2023/01/04 05:23:46;;;;;;;5.00;2.10;;;10.30;99.90;;;;;;5015539;28;20136;-84
2023/01/04 05:26:12;;;;;;;4.00;2.10;;;10.30;99.90;;;;;;5034350;28;20045;-84
2023/01/04 05:28:37;;;;;;;3.05;2.08;;;10.30;99.90;;;;;;5016005;28;20041;-84
2023/01/04 05:31:03;;;;;;;5.88;2.65;;;10.30;99.90;;;;;;5016792;28;20485;-85
2023/01/04 05:34:03;;;;;;;;;;;;;;;;;;;;;
2023/01/04 05:42:41;;;;;;;3.33;2.10;;;10.40;99.90;;;;;;5444328;22;20057;-94
2023/01/04 05:45:07;;;;;;;5.22;2.45;;;10.40;99.90;;;;;;4997755;28;20044;-94
2023/01/04 05:47:33;;;;;;;5.47;2.47;;;10.40;99.90;;;;;;5014194;28;20046;-82
2023/01/04 05:49:59;;;;;;;6.30;2.97;;;10.40;99.90;;;;;;5013742;28;20120;-83
2023/01/04 05:52:25;;;;;;;5.80;2.90;;;10.40;99.90;;;;;;5011853;28;20525;-83
2023/01/04 05:54:51;;;;;;;4.97;2.78;;;10.50;99.90;;;;;;5013396;28;20038;-83
2023/01/04 05:57:16;;;;;;;5.05;2.90;;;10.50;99.90;;;;;;5012683;28;20440;-83
2023/01/04 05:59:42;;;;;;;5.65;2.58;;;10.50;99.90;;;;;;4995602;28;20129;-82
2023/01/04 06:02:14;;;;;;;7.35;2.65;;;10.50;99.90;;;;;;5013095;28;20049;-82
2023/01/04 06:04:39;;;;;;;5.22;2.70;;;10.50;99.90;;;;;;4994930;28;20041;-82
2023/01/04 06:07:05;;;;;;;5.28;2.60;;;10.60;99.90;;;;;;4996064;28;20133;-83
2023/01/04 06:09:31;;;;;;;4.82;2.55;;;10.60;99.90;;;;;;5013180;28;20426;-83
2023/01/04 06:11:56;;;;;;;6.70;2.55;;;10.60;99.90;;;;;;5012598;28;20048;-83
2023/01/04 06:14:22;;;;;;;4.80;2.40;;;10.60;99.90;;;;;;5012711;28;20049;-82
2023/01/04 06:16:47;;;;;;;5.57;3.03;;;10.60;99.90;;;;;;4995650;28;20045;-83
2023/01/04 06:19:13;;;;;;;4.68;2.50;;;10.60;99.90;;;;;;5012581;28;20129;-82
2023/01/04 06:21:39;;;;;;;5.72;2.10;;;10.60;99.90;;;;;;4995582;28;20073;-83
2023/01/04 06:24:04;;;;;;;4.45;2.28;;;10.70;99.90;;;;;;5014205;28;20409;-83
2023/01/04 06:26:30;;;;;;;6.97;2.00;;;10.60;99.90;;;;;;4995005;28;20042;-84
2023/01/04 06:28:55;;;;;;;5.18;2.03;;;10.70;99.90;;;;;;4995622;28;20049;-82
2023/01/04 06:31:24;;;;;;;3.17;1.90;;;10.70;99.90;;;;;;4995276;28;20046;-82
2023/01/04 06:33:52;;;;;;;3.38;1.60;;;10.70;99.90;;;;;;5012933;28;20052;-83
2023/01/04 06:36:23;;;;;;;4.80;1.63;;;10.70;99.90;;;;;;5012926;28;20475;-82
2023/01/04 06:38:49;;;;;;;5.63;1.90;;;10.70;99.90;;;;;;5013007;28;20104;-83
2023/01/04 06:41:15;;;;;;;4.38;1.60;;;10.80;99.90;;;;;;4995028;28;20041;-83
2023/01/04 06:43:43;;;;;;;3.50;1.65;;;10.80;99.90;;;;;;5009759;28;20131;-83
2023/01/04 06:46:11;;;;;;;4.60;1.40;;;10.80;99.90;;;;;;5012168;28;20489;-83
2023/01/04 06:48:37;;;;;;;3.25;1.58;;;10.80;99.90;;;;;;5011394;28;20045;-82
2023/01/04 06:51:02;;;;;;;3.05;1.38;;;10.80;99.90;;;;;;5013115;28;20478;-84
2023/01/04 06:53:28;;;;;;;4.18;1.73;;;10.80;99.90;;;;;;5012311;28;20053;-83
2023/01/04 06:55:54;;;;;;;2.88;1.48;;;10.80;99.90;;;;;;5011322;28;20038;-83
2023/01/04 06:58:19;;;;;;;4.35;1.50;;;10.90;99.90;;;;;;5012715;28;20112;-83
2023/01/04 07:00:46;;;;;;;3.35;1.45;;;10.90;99.90;;;;;;5010314;28;20137;-83
2023/01/04 07:03:12;;;;;;;2.78;1.40;;;10.90;99.90;;;;;;5011591;28;20050;-83
2023/01/04 07:05:37;;;;;;;3.03;1.27;;;10.90;99.90;;;;;;5015370;28;20100;-83
2023/01/04 07:08:03;;;;;;;3.20;1.25;;;10.90;99.90;;;;;;5014459;28;20131;-83
2023/01/04 07:10:29;;;;;;;3.25;1.27;;;10.90;99.90;;;;;;5016742;28;20042;-84
2023/01/04 07:12:54;;;;;;;3.63;1.17;;;10.90;99.90;;;;;;5016618;28;20053;-84
2023/01/04 07:15:20;;;;;;;2.33;1.10;;;10.90;99.90;;;;;;5014297;28;20042;-84
2023/01/04 07:17:49;;;;;;;2.83;1.10;;;10.90;99.90;;;;;;5016068;28;20125;-84
2023/01/04 07:20:16;;;;;;;2.42;1.00;;;10.90;99.90;;;;;;5016378;28;20049;-84
2023/01/04 07:22:41;;;;;;;4.28;1.30;;;10.90;99.90;;;;;;5015695;28;20046;-83
2023/01/04 07:25:07;;;;;;;2.92;1.20;;;10.90;99.90;;;;;;5014585;28;20064;-84
2023/01/04 07:27:33;;;;;;;2.33;1.30;;;10.90;99.90;;;;;;5015382;28;20121;-84
2023/01/04 07:29:59;;;;;;;2.83;1.02;;;11.00;99.90;;;;;;5013679;28;20046;-84
2023/01/04 07:32:24;;;;;;;3.15;1.13;;;10.90;99.90;;;;;;5015612;28;20056;-83
2023/01/04 07:34:50;;;;;;;2.53;1.00;;;10.90;99.90;;;;;;5016098;28;20474;-84
2023/01/04 07:37:15;;;;;;;4.72;1.10;;;11.00;99.90;;;;;;5015265;28;20048;-83
2023/01/04 07:39:42;;;;;;;2.50;1.10;;;11.00;99.90;;;;;;5014988;28;20184;-83
2023/01/04 07:42:09;;;;;;;1.80;1.17;;;11.00;99.90;;;;;;5014675;28;20041;-83
2023/01/04 07:44:34;;;;;;;2.38;1.20;;;11.00;99.90;;;;;;4997921;28;20046;-84
2023/01/04 07:47:00;;;;;;;2.25;1.10;;;11.00;99.90;;;;;;5015522;28;20500;-84
2023/01/04 07:49:26;;;;;;;2.65;1.20;;;11.00;99.90;;;;;;5015787;28;20455;-83
2023/01/04 07:51:51;;;;;;;2.63;1.10;;;11.00;99.90;;;;;;5015107;28;20046;-83
2023/01/04 07:54:18;;;;;;;2.72;1.10;;;11.00;99.90;;;;;;5014782;28;20478;-84
2023/01/04 07:56:44;;;;;;;2.45;1.17;;;11.00;99.90;;;;;;5015202;28;20129;-84
2023/01/04 07:59:11;;;;;;;4.40;1.17;;;11.00;99.90;;;;;;4997448;28;20044;-83
2023/01/04 08:01:37;;;;;;;2.42;1.13;;;11.10;99.90;;;;;;5015155;28;20042;-83
2023/01/04 08:04:10;;;;;;;2.75;1.10;;;11.10;99.90;;;;;;4997237;28;20037;-83
2023/01/04 08:06:36;;;;;;;2.65;1.10;;;11.00;99.90;;;;;;5014433;28;20442;-84
2023/01/04 08:09:04;;;;;;;3.83;1.10;;;11.10;99.90;;;;;;4996139;28;20126;-84
2023/01/04 08:11:30;;;;;;;2.67;1.30;;;11.10;99.90;;;;;;5013798;28;20849;-84
2023/01/04 08:13:56;;;;;;;3.00;1.48;;;11.10;99.90;;;;;;4997066;28;20494;-84
2023/01/04 08:16:23;;;;;;;4.32;1.60;;;11.10;99.90;;;;;;5014436;28;20064;-84
2023/01/04 08:18:57;;;;;;;3.45;1.50;;;11.10;99.90;;;;;;4996215;28;20099;-84
2023/01/04 08:21:22;;;;;;;;;;;11.10;99.90;;;;;;4997251;28;20117;-82
2023/01/04 08:23:48;;;;;;;3.45;1.60;;;11.10;99.90;;;;;;5014562;28;19996;-83
2023/01/04 08:26:15;;;;;;;3.33;1.65;;;11.10;99.90;;;;;;4997903;28;20061;-82
2023/01/04 08:28:41;;;;;;;3.80;1.55;;;11.10;99.90;;;;;;5009414;28;20129;-83
2023/01/04 08:31:11;;;;;;;5.10;1.70;;;11.20;99.90;;;;;;4997417;28;20042;-85
2023/01/04 08:33:38;;;;;;;4.90;1.60;;;11.10;99.90;;;;;;5014230;28;20045;-83
2023/01/04 08:36:18;;;;;;;5.00;1.58;;;11.20;99.90;;;;;;4996581;28;20053;-83
2023/01/04 08:38:44;;;;;;;3.92;1.60;;;11.20;99.90;;;;;;4996988;28;20386;-82
2023/01/04 08:41:10;;;;;;;4.47;1.65;;;11.20;99.90;;;;;;4996482;28;20049;-83
2023/01/04 08:43:36;;;;;;;4.55;1.55;;;11.20;99.90;;;;;;4997019;28;20058;-83
2023/01/04 08:46:03;;;;;;;4.20;2.33;;;11.20;99.90;;;;;;5014026;28;20046;-83
2023/01/04 08:48:30;;;;;;;7.88;3.65;;;11.20;99.90;;;;;;4995383;28;20045;-82
2023/01/04 08:51:00;;;;;;;5.32;3.17;;;11.20;99.90;;;;;;4996735;28;20046;-83
2023/01/04 08:53:26;;;;;;;8.95;5.28;;;11.20;99.90;;;;;;4995735;28;20050;-82
2023/01/04 08:55:52;;;;;;;12.68;7.40;;;11.20;99.90;;;;;;4996314;28;20034;-83
2023/01/04 08:58:18;;;;;;;4.10;2.28;;;11.20;99.90;;;;;;4995838;28;20041;-83
2023/01/04 09:00:44;;;;;;;4.72;1.63;;;11.20;99.90;;;;;;4996079;28;20767;-83
2023/01/04 09:03:10;;;;;;;3.00;1.10;;;11.30;99.90;;;;;;5013912;28;20038;-84
2023/01/04 09:05:36;;;;;;;3.40;1.50;;;11.20;99.90;;;;;;5013531;28;20034;-84
2023/01/04 09:08:01;;;;;;;2.63;1.00;;;11.20;99.90;;;;;;5013565;28;20046;-83
2023/01/04 09:10:27;;;;;;;2.33;1.10;;;11.30;99.90;;;;;;5013104;28;20111;-83
2023/01/04 09:12:53;;;;;;;2.20;1.17;;;11.30;99.90;;;;;;4996931;28;20076;-84
2023/01/04 09:15:19;;;;;;;2.55;1.00;;;11.30;99.90;;;;;;4995533;28;20086;-84
2023/01/04 09:17:44;;;;;;;2.90;0.85;;;11.30;99.90;;;;;;4996650;28;20048;-84
2023/01/04 09:20:10;;;;;;;2.30;1.00;;;11.30;99.90;;;;;;5013486;28;20130;-84
2023/01/04 09:22:36;;;;;;;2.67;0.80;;;11.30;99.90;;;;;;5013121;28;20096;-84
2023/01/04 09:25:02;;;;;;;1.98;0.90;;;11.30;99.90;;;;;;4996673;28;20041;-84
2023/01/04 09:27:30;;;;;;;2.15;0.90;;;11.30;99.90;;;;;;4995403;28;20060;-84
2023/01/04 09:29:55;;;;;;;2.05;0.88;;;11.30;99.90;;;;;;4995542;28;20128;-84
2023/01/04 09:32:21;;;;;;;2.45;0.80;;;11.40;99.90;;;;;;5013528;28;20080;-85
2023/01/04 09:34:47;;;;;;;1.25;0.75;;;11.30;99.90;;;;;;5013097;28;20037;-84
2023/01/04 09:37:12;;;;;;;2.05;0.70;;;11.40;99.90;;;;;;4995057;28;20051;-84
2023/01/04 09:39:38;;;;;;;2.20;0.73;;;11.30;99.90;;;;;;5014021;28;20056;-84
2023/01/04 09:42:18;;;;;;;1.42;0.70;;;11.40;99.90;;;;;;5012595;28;20125;-84
2023/01/04 09:44:49;;;;;;;2.67;0.98;;;11.40;99.90;;;;;;4990379;28;20041;-84
2023/01/04 09:47:29;;;;;;;2.38;1.00;;;11.40;99.90;;;;;;4995825;28;20453;-84
2023/01/04 09:50:06;;;;;;;3.78;1.30;;;11.40;99.90;;;;;;4995876;28;20038;-84
2023/01/04 09:52:46;;;;;;;3.95;1.20;;;11.40;99.90;;;;;;4996411;28;20049;-84
2023/01/04 09:55:32;;;;;;;4.63;1.30;;;11.40;99.90;;;;;;5013401;28;20482;-85
2023/01/04 09:58:23;;;;;;;4.90;1.50;;;11.50;99.90;;;;;;4994583;28;20391;-84
2023/01/04 10:01:22;;;;;;;6.80;1.50;;;11.50;99.90;;;;;;4996175;28;20054;-84
2023/01/04 10:04:28;;;;;;;7.82;1.77;;;11.50;99.90;;;;;;5012634;28;20042;-85
2023/01/04 10:06:53;;;;;;;6.57;1.67;;;11.50;99.90;;;;;;4959174;28;20061;-84
2023/01/04 10:09:19;;;;;;;9.10;2.30;;;11.50;99.90;;;;;;5013168;28;20038;-85
2023/01/04 10:12:20;;;;;;;10.23;2.30;;;11.60;99.90;;;;;;5012229;28;20037;-86
2023/01/04 10:15:05;;;;;;;9.05;2.10;;;11.60;99.90;;;;;;4965515;28;20141;-86
2023/01/04 10:17:49;;;;;;;11.23;2.20;;;11.60;99.90;;;;;;4995385;28;20073;-85
2023/01/04 10:20:52;;;;;;;15.75;2.78;;;11.60;99.90;;;;;;4995386;28;20386;-86
2023/01/04 10:23:27;;;;;;;15.73;2.40;;;11.60;99.90;;;;;;4995499;28;20050;-85
2023/01/04 10:26:12;;;;;;;12.98;2.88;;;11.60;99.90;;;;;;5012198;28;20428;-86
2023/01/04 10:28:45;;;;;;;14.73;2.88;;;11.70;99.90;;;;;;5012464;28;20049;-84
2023/01/04 10:31:14;;;;;;;14.05;2.75;;;11.70;99.90;;;;;;4995230;28;20136;-87
2023/01/04 10:33:53;;;;;;;16.08;3.00;;;11.70;99.90;;;;;;4994481;28;20108;-87
2023/01/04 10:36:22;;;;;;;22.30;3.30;;;11.70;99.90;;;;;;5011932;28;20042;-85
2023/01/04 10:38:59;;;;;;;22.35;4.20;;;11.70;99.90;;;;;;5014988;28;20490;-87
2023/01/04 10:41:34;;;;;;;25.55;4.22;;;11.80;99.90;;;;;;5007252;28;20129;-87
2023/01/04 10:44:23;;;;;;;28.90;4.82;;;11.80;99.90;;;;;;5002359;28;20053;-87
2023/01/04 10:47:03;;;;;;;21.60;4.35;;;11.80;99.90;;;;;;5005255;28;20053;-84
2023/01/04 10:49:36;;;;;;;17.48;3.42;;;11.80;99.90;;;;;;4979522;28;20074;-85
2023/01/04 10:52:26;;;;;;;20.13;3.75;;;11.80;99.90;;;;;;4979829;28;20050;-86
2023/01/04 10:54:56;;;;;;;23.48;4.30;;;11.90;99.90;;;;;;4979024;28;20487;-85
2023/01/04 10:57:39;;;;;;;25.02;4.25;;;11.90;99.90;;;;;;5005112;28;20120;-85
2023/01/04 11:00:20;;;;;;;30.63;4.35;;;11.90;99.90;;;;;;4998407;28;20053;-87
2023/01/04 11:02:55;;;;;;;24.67;4.55;;;11.90;99.90;;;;;;5015214;28;20466;-85
2023/01/04 11:05:27;;;;;;;28.65;4.30;;;11.90;99.90;;;;;;4977136;28;20049;-85
2023/01/04 11:07:53;;;;;;;26.98;4.43;;;12.00;99.90;;;;;;4979047;28;20077;-87
2023/01/04 11:10:28;;;;;;;24.52;4.60;;;12.00;99.90;;;;;;4979160;28;20082;-85
2023/01/04 11:12:53;;;;;;;23.52;4.43;;;12.10;99.90;;;;;;5011245;28;20050;-86
2023/01/04 11:15:19;;;;;;;25.08;4.32;;;12.00;99.90;;;;;;4997364;28;20462;-85
2023/01/04 11:17:46;;;;;;;26.60;5.15;;;12.00;99.90;;;;;;4998985;28;20042;-86
2023/01/04 11:20:12;;;;;;;31.17;5.45;;;12.10;99.90;;;;;;5015248;28;20445;-85
2023/01/04 11:22:52;;;;;;;21.98;4.28;;;12.10;99.90;;;;;;5015576;28;20042;-86
2023/01/04 11:25:20;;;;;;;25.98;4.05;;;12.10;99.90;;;;;;4998596;28;20108;-86
2023/01/04 11:27:56;;;;;;;24.85;4.47;;;12.10;99.90;;;;;;4998078;28;20449;-86
2023/01/04 11:30:24;;;;;;;26.90;4.63;;;12.10;99.90;;;;;;4997228;28;20075;-87
2023/01/04 11:33:12;;;;;;;27.02;3.85;;;12.10;99.90;;;;;;4997863;28;20042;-85
2023/01/04 11:35:42;;;;;;;23.52;4.55;;;12.10;99.90;;;;;;5006713;28;20482;-86
2023/01/04 11:38:17;;;;;;;29.08;5.03;;;12.10;99.90;;;;;;4998172;28;20053;-86
2023/01/04 11:40:55;;;;;;;25.63;3.97;;;12.10;99.90;;;;;;5016053;28;20061;-88
2023/01/04 11:43:22;;;;;;;25.02;4.40;;;12.10;99.90;;;;;;5014926;28;20479;-91
2023/01/04 11:45:58;;;;;;;29.05;4.43;;;12.10;99.90;;;;;;4998246;28;20508;-90
2023/01/04 11:48:35;;;;;;;26.00;4.93;;;12.10;99.90;;;;;;4998310;28;20118;-91
2023/01/04 11:51:01;;;;;;;21.02;3.60;;;12.20;99.90;;;;;;4995957;28;20132;-91
2023/01/04 11:53:32;;;;;;;25.52;3.65;;;12.20;99.90;;;;;;4997897;28;20470;-92
2023/01/04 11:56:39;;;;;;;20.15;3.58;;;12.20;99.90;;;;;;5015572;28;20037;-91
2023/01/04 11:59:12;;;;;;;22.15;3.38;;;12.20;99.90;;;;;;4970289;28;20528;-90
2023/01/04 12:01:45;;;;;;;21.87;4.17;;;12.20;99.90;;;;;;4996370;28;20156;-92
2023/01/04 12:04:19;;;;;;;20.65;3.53;;;12.20;99.90;;;;;;4977314;28;20344;-87
2023/01/04 12:06:57;;;;;;;20.73;3.78;;;12.20;99.90;;;;;;4978649;28;20050;-86
2023/01/04 12:09:23;;;;;;;18.08;3.22;;;12.20;99.90;;;;;;5011616;28;20054;-88
2023/01/04 12:11:54;;;;;;;17.05;3.33;;;12.20;99.90;;;;;;4996414;28;20437;-87
2023/01/04 12:14:20;;;;;;;20.85;3.15;;;12.20;99.90;;;;;;5013305;28;20390;-88
2023/01/04 12:17:19;;;;;;;14.77;3.60;;;12.30;99.90;;;;;;5014471;28;20038;-88
2023/01/04 12:19:46;;;;;;;18.23;3.42;;;12.30;99.90;;;;;;4997181;28;20101;-87
2023/01/04 12:22:34;;;;;;;17.20;3.22;;;12.30;99.90;;;;;;5014382;28;20498;-88
2023/01/04 12:25:02;;;;;;;10.40;3.35;;;12.30;99.90;;;;;;4984457;28;20049;-88
2023/01/04 12:27:28;;;;;;;10.32;2.58;;;12.30;99.90;;;;;;4996612;28;20108;-87
2023/01/04 12:30:00;;;;;;;10.25;2.17;;;12.30;99.90;;;;;;4996628;28;20825;-88
2023/01/04 12:32:25;;;;;;;12.23;2.38;;;12.30;99.90;;;;;;4989295;28;20124;-87
2023/01/04 12:34:51;;;;;;;10.40;1.70;;;12.30;99.90;;;;;;4996687;28;20050;-89
2023/01/04 12:37:41;;;;;;;10.13;2.05;;;12.30;99.90;;;;;;4996255;28;20050;-89
2023/01/04 12:40:45;;;;;;;14.38;1.90;;;12.30;99.90;;;;;;4995813;28;20088;-89
2023/01/04 12:43:13;;;;;;;8.35;1.52;;;12.30;99.90;;;;;;5004640;28;20054;-89
2023/01/04 12:45:39;;;;;;;8.05;1.60;;;12.30;99.90;;;;;;5003412;28;20042;-89
2023/01/04 12:51:24;;;;;;;7.68;1.40;;;12.30;99.90;;;;;;5012613;28;20049;-88
2023/01/04 12:53:50;;;;;;;9.75;2.50;;;12.30;99.90;;;;;;5013225;28;20051;-87
2023/01/04 12:56:16;;;;;;;8.35;1.92;;;12.30;99.90;;;;;;5011701;28;20073;-87
2023/01/04 12:59:07;;;;;;;13.38;2.20;;;12.30;99.90;;;;;;5012011;28;20073;-88
2023/01/04 13:01:34;;;;;;;12.23;2.50;;;12.30;99.90;;;;;;5013025;28;20049;-88
2023/01/04 13:04:21;;;;;;;12.15;2.13;;;12.30;99.90;;;;;;5012682;28;20104;-90
2023/01/04 13:06:47;;;;;;;17.92;2.55;;;12.30;99.90;;;;;;5012451;28;20038;-89
2023/01/04 13:09:21;;;;;;;16.92;2.90;;;12.30;99.90;;;;;;5011952;28;20044;-88
2023/01/04 13:12:12;;;;;;;15.90;2.67;;;12.30;99.90;;;;;;5025603;28;20043;-89
2023/01/04 13:14:47;;;;;;;13.43;2.63;;;12.30;99.90;;;;;;5011676;28;20164;-88
2023/01/04 13:17:13;;;;;;;18.73;3.22;;;12.20;99.90;;;;;;5012775;28;20077;-91
2023/01/04 13:19:40;;;;;;;19.63;3.20;;;12.30;99.90;;;;;;5012399;28;20454;-88
2023/01/04 13:22:21;;;;;;;16.60;3.17;;;12.30;99.90;;;;;;5011995;28;20080;-88
2023/01/04 13:24:47;;;;;;;14.25;3.03;;;12.20;99.90;;;;;;5012707;28;20044;-87
2023/01/04 13:27:21;;;;;;;20.70;3.80;;;12.20;99.90;;;;;;5012417;28;20046;-88
2023/01/04 13:29:48;;;;;;;25.98;3.80;;;12.20;99.90;;;;;;4998733;28;20048;-87
2023/01/04 13:32:20;;;;;;;21.67;3.65;;;12.20;99.90;;;;;;5013132;28;20045;-88
2023/01/04 13:34:51;;;;;;;22.00;3.78;;;12.20;99.90;;;;;;5012129;28;20042;-87
2023/01/04 13:37:31;;;;;;;23.50;3.42;;;12.20;99.90;;;;;;5012427;28;20046;-87
2023/01/04 13:40:26;;;;;;;26.83;4.72;;;12.20;99.90;;;;;;4996498;28;20042;-88
2023/01/04 13:43:14;;;;;;;24.65;3.58;;;12.20;99.90;;;;;;5010881;28;20062;-88
2023/01/04 13:46:16;;;;;;;22.83;3.88;;;12.20;99.90;;;;;;5013392;28;20180;-89
2023/01/04 13:48:46;;;;;;;21.80;3.70;;;12.20;99.90;;;;;;5012665;28;20435;-87
2023/01/04 13:51:21;;;;;;;25.15;3.95;;;12.20;99.90;;;;;;5013249;28;20490;-89
2023/01/04 13:53:58;;;;;;;21.98;3.50;;;12.20;99.90;;;;;;5012321;28;20572;-87
2023/01/04 13:56:32;;;;;;;24.98;4.18;;;12.20;99.90;;;;;;5011271;28;20478;-88
2023/01/04 13:58:58;;;;;;;22.15;3.95;;;12.20;99.90;;;;;;5012662;28;20052;-88
2023/01/04 14:01:31;;;;;;;26.40;4.35;;;12.20;99.90;;;;;;5012625;28;20034;-89